Time;durP1;ratioP1;P1;durP2;ratioP2;P2;SDS_P1;SDS_P2;PMS_P1;PMS_P2;Temp;Humidity;BMP_temperature;BMP_pressure;BME280_temperature;BME280_humidity;BME280_pressure;Samples;Min_cycle;Max_cycle;Signal;HPM_P1;HPM_P2
2022/08/10 00:00:28;;;;;;;4.07;2.30;;;26.30;36.90;;;;;;5034959;28;20029;-63
2022/08/10 00:02:57;;;;;;;5.88;2.65;;;26.30;36.90;;;;;;5035010;28;20138;-61
2022/08/10 00:05:23;;;;;;;3.75;2.20;;;26.30;37.00;;;;;;5034789;28;20021;-63
2022/08/10 00:07:49;;;;;;;3.35;2.25;;;26.30;37.00;;;;;;5034540;28;20026;-64
2022/08/10 00:10:17;;;;;;;2.97;2.33;;;26.30;37.10;;;;;;5034770;28;20029;-64
2022/08/10 00:12:44;;;;;;;2.72;2.30;;;26.20;37.00;;;;;;5035031;28;20034;-63
2022/08/10 00:15:12;;;;;;;2.72;2.50;;;26.20;37.00;;;;;;5034964;28;20328;-62
2022/08/10 00:17:37;;;;;;;2.67;2.22;;;26.20;36.90;;;;;;5034543;28;20551;-63
2022/08/10 00:20:05;;;;;;;3.70;2.50;;;26.20;36.90;;;;;;5034599;28;20055;-63
2022/08/10 00:22:31;;;;;;;4.75;2.58;;;26.20;37.00;;;;;;5033417;28;20022;-63
2022/08/10 00:24:56;;;;;;;4.00;2.33;;;26.20;36.90;;;;;;5034627;28;20488;-62
2022/08/10 00:27:27;;;;;;;4.90;2.45;;;26.10;36.80;;;;;;5034192;28;20024;-63
2022/08/10 00:29:53;;;;;;;4.60;2.40;;;26.20;36.70;;;;;;5034571;28;20036;-63
2022/08/10 00:32:18;;;;;;;4.18;2.10;;;26.10;36.60;;;;;;5034429;28;20030;-63
2022/08/10 00:34:44;;;;;;;3.78;2.67;;;26.10;36.70;;;;;;5034191;28;20059;-63
2022/08/10 00:37:12;;;;;;;2.80;2.33;;;26.00;36.60;;;;;;5033962;28;20026;-63
2022/08/10 00:39:37;;;;;;;5.03;2.25;;;26.00;36.50;;;;;;5034193;28;20483;-62
2022/08/10 00:42:08;;;;;;;2.92;2.47;;;26.00;36.50;;;;;;5034354;28;20029;-63
2022/08/10 00:44:35;;;;;;;4.38;2.55;;;25.90;36.60;;;;;;5034208;28;20025;-65
2022/08/10 00:47:01;;;;;;;4.00;2.40;;;25.90;36.60;;;;;;5033710;28;20377;-64
2022/08/10 00:49:27;;;;;;;3.63;2.45;;;25.90;36.40;;;;;;5033758;28;20033;-63
2022/08/10 00:51:53;;;;;;;3.22;2.15;;;25.90;36.40;;;;;;5033976;28;20348;-63
2022/08/10 00:54:19;;;;;;;3.30;2.20;;;25.90;36.40;;;;;;5015535;28;20032;-64
2022/08/10 00:56:45;;;;;;;4.85;2.28;;;25.90;36.40;;;;;;5031928;28;20063;-64
2022/08/10 00:59:11;;;;;;;3.40;2.20;;;25.90;36.50;;;;;;5033838;28;20053;-63
2022/08/10 01:01:37;;;;;;;4.00;2.35;;;25.80;36.60;;;;;;5032254;28;20036;-64
2022/08/10 01:04:03;;;;;;;3.25;2.40;;;25.80;36.60;;;;;;5031915;28;20116;-64
2022/08/10 01:06:44;;;;;;;2.63;1.83;;;25.80;36.70;;;;;;5031756;28;20083;-64
2022/08/10 01:09:19;;;;;;;5.20;2.20;;;25.70;36.80;;;;;;5031889;28;20037;-63
2022/08/10 01:12:04;;;;;;;3.58;2.00;;;25.70;36.90;;;;;;5032029;28;20742;-61
2022/08/10 01:14:39;;;;;;;4.43;2.22;;;25.70;36.90;;;;;;5031690;28;20492;-63
2022/08/10 01:17:31;;;;;;;4.18;2.40;;;25.70;36.90;;;;;;5031655;28;20105;-64
2022/08/10 01:19:59;;;;;;;3.75;2.58;;;25.70;36.80;;;;;;5016606;28;20495;-63
2022/08/10 01:22:43;;;;;;;3.30;2.50;;;25.70;36.90;;;;;;5033374;28;20026;-63
2022/08/10 01:25:23;;;;;;;3.88;2.30;;;25.60;37.00;;;;;;5033508;28;20125;-65
2022/08/10 01:28:07;;;;;;;5.20;2.30;;;25.60;36.90;;;;;;5031911;28;20036;-64
2022/08/10 01:30:34;;;;;;;3.17;2.15;;;25.60;36.90;;;;;;5033393;28;20030;-65
2022/08/10 01:33:08;;;;;;;2.38;2.08;;;25.60;36.90;;;;;;5033337;28;20132;-64
2022/08/10 01:35:56;;;;;;;2.92;2.60;;;25.60;36.90;;;;;;5033737;28;20049;-63
2022/08/10 01:38:34;;;;;;;2.60;2.28;;;25.60;36.80;;;;;;5032895;28;20029;-64
2022/08/10 01:41:07;;;;;;;2.40;1.85;;;25.60;36.90;;;;;;5033192;28;20476;-62
2022/08/10 01:43:39;;;;;;;3.67;1.80;;;25.60;37.00;;;;;;5033201;28;20032;-65
2022/08/10 01:46:07;;;;;;;4.22;2.17;;;25.60;36.90;;;;;;5032984;28;20024;-63
2022/08/10 01:48:40;;;;;;;2.25;1.92;;;25.50;36.90;;;;;;5032907;28;20025;-65
2022/08/10 01:51:22;;;;;;;3.35;2.40;;;25.50;36.90;;;;;;5032909;28;20491;-64
2022/08/10 01:54:14;;;;;;;3.42;2.50;;;25.50;36.90;;;;;;5033098;28;20079;-65
2022/08/10 01:56:44;;;;;;;3.45;2.10;;;25.50;37.00;;;;;;5032269;28;20492;-65
2022/08/10 01:59:42;;;;;;;3.08;2.35;;;25.50;36.90;;;;;;5032748;28;20033;-64
2022/08/10 02:02:13;;;;;;;2.72;2.47;;;25.50;36.90;;;;;;5032262;28;20030;-65
2022/08/10 02:04:43;;;;;;;3.25;2.10;;;25.50;37.00;;;;;;5032680;28;20067;-64
2022/08/10 02:07:12;;;;;;;3.40;2.17;;;25.50;37.00;;;;;;5032122;28;20032;-64
2022/08/10 02:09:41;;;;;;;3.10;2.15;;;25.50;37.00;;;;;;5032414;28;20029;-64
2022/08/10 02:12:11;;;;;;;2.75;1.90;;;25.40;37.20;;;;;;5031357;28;20026;-62
2022/08/10 02:14:46;;;;;;;2.28;2.08;;;25.40;37.20;;;;;;5032447;28;20033;-65
2022/08/10 02:17:16;;;;;;;3.30;2.10;;;25.40;37.20;;;;;;5031961;28;20440;-65
2022/08/10 02:19:44;;;;;;;2.47;2.20;;;25.40;37.20;;;;;;5032383;28;20120;-66
2022/08/10 02:22:12;;;;;;;6.97;2.10;;;25.40;37.20;;;;;;5032272;28;20029;-63
2022/08/10 02:24:41;;;;;;;3.85;2.70;;;25.40;37.20;;;;;;5032362;28;20028;-63
2022/08/10 02:27:08;;;;;;;3.65;2.28;;;25.40;37.20;;;;;;5032033;28;20029;-64
2022/08/10 02:29:35;;;;;;;3.28;2.47;;;25.40;37.20;;;;;;5032167;28;20087;-64
2022/08/10 02:32:03;;;;;;;2.78;1.98;;;25.30;37.30;;;;;;5032263;28;20037;-65
2022/08/10 02:34:30;;;;;;;3.70;2.10;;;25.30;37.20;;;;;;5032264;28;20072;-65
2022/08/10 02:36:57;;;;;;;4.38;2.42;;;25.30;37.30;;;;;;5030179;28;20036;-64
2022/08/10 02:39:24;;;;;;;2.47;2.28;;;25.30;37.40;;;;;;5030677;28;20151;-65
2022/08/10 02:42:12;;;;;;;3.33;2.00;;;25.30;37.30;;;;;;5030923;28;20017;-64
2022/08/10 02:44:39;;;;;;;3.60;2.35;;;25.30;37.30;;;;;;5011497;28;20084;-61
2022/08/10 02:47:09;;;;;;;3.40;2.53;;;25.20;37.30;;;;;;5011666;28;20022;-63
2022/08/10 02:49:42;;;;;;;2.35;2.05;;;25.20;37.40;;;;;;5012128;28;20080;-64
2022/08/10 02:52:16;;;;;;;2.78;2.15;;;25.20;37.40;;;;;;5012151;28;20065;-64
2022/08/10 02:54:51;;;;;;;2.20;1.92;;;25.20;37.50;;;;;;5012053;28;20030;-64
2022/08/10 02:57:25;;;;;;;2.78;2.08;;;25.20;37.60;;;;;;5030739;23;20048;-66
2022/08/10 02:59:54;;;;;;;2.53;2.10;;;25.20;37.60;;;;;;5030388;28;20060;-65
2022/08/10 03:02:29;;;;;;;4.38;2.20;;;25.20;37.60;;;;;;5031302;28;20072;-66
2022/08/10 03:05:00;;;;;;;4.53;2.67;;;25.20;37.70;;;;;;5031582;28;20029;-65
2022/08/10 03:07:36;;;;;;;2.15;1.90;;;25.20;37.70;;;;;;5031403;28;20076;-65
2022/08/10 03:10:06;;;;;;;5.28;2.10;;;25.10;37.80;;;;;;5031469;28;20434;-65
2022/08/10 03:12:34;;;;;;;3.40;2.10;;;25.20;37.80;;;;;;5031700;28;20021;-65
2022/08/10 03:15:00;;;;;;;3.70;2.53;;;25.10;37.80;;;;;;5031685;28;20062;-65
2022/08/10 03:17:28;;;;;;;3.13;2.45;;;25.10;37.80;;;;;;5031162;28;20021;-65
2022/08/10 03:19:56;;;;;;;2.53;1.98;;;25.10;37.80;;;;;;5035556;28;20369;-65
2022/08/10 03:22:22;;;;;;;4.90;2.60;;;25.00;37.80;;;;;;5035718;28;20049;-65
2022/08/10 03:24:49;;;;;;;3.17;2.42;;;25.10;37.80;;;;;;5035694;28;20025;-65
2022/08/10 03:27:16;;;;;;;4.20;2.28;;;25.10;37.80;;;;;;5035328;28;20439;-65
2022/08/10 03:29:43;;;;;;;3.38;2.47;;;25.00;37.80;;;;;;5035538;28;20029;-64
2022/08/10 03:32:10;;;;;;;2.80;2.03;;;25.00;38.00;;;;;;5035350;28;20095;-64
2022/08/10 03:34:37;;;;;;;3.08;2.30;;;25.00;38.00;;;;;;5035425;28;20105;-65
2022/08/10 03:37:03;;;;;;;3.28;2.10;;;25.00;37.90;;;;;;5035248;28;20039;-64
2022/08/10 03:39:29;;;;;;;2.80;2.40;;;25.00;38.00;;;;;;5035308;28;20116;-64
2022/08/10 03:41:59;;;;;;;7.22;2.35;;;25.00;38.00;;;;;;5036945;28;20399;-64
2022/08/10 03:44:29;;;;;;;3.83;2.55;;;25.00;38.10;;;;;;5036014;28;20022;-64
2022/08/10 03:46:58;;;;;;;3.28;2.47;;;25.00;38.10;;;;;;5035148;28;20026;-62
2022/08/10 03:49:25;;;;;;;2.92;2.20;;;25.00;38.10;;;;;;5035176;28;20033;-64
2022/08/10 03:51:52;;;;;;;2.30;2.10;;;24.90;38.10;;;;;;5035088;28;20025;-65
2022/08/10 03:54:18;;;;;;;3.67;2.42;;;25.00;38.10;;;;;;5035163;28;20032;-64
2022/08/10 03:56:44;;;;;;;4.25;2.45;;;24.90;38.10;;;;;;5034848;28;20139;-64
2022/08/10 03:59:13;;;;;;;4.30;2.25;;;24.90;38.10;;;;;;5035451;28;20029;-64
2022/08/10 04:01:43;;;;;;;3.63;2.08;;;24.90;38.10;;;;;;5036256;28;20021;-65
2022/08/10 04:04:09;;;;;;;5.03;2.45;;;24.90;38.10;;;;;;5036092;28;20078;-65
2022/08/10 04:06:36;;;;;;;3.05;2.53;;;24.90;38.00;;;;;;5035280;28;20088;-64
2022/08/10 04:09:02;;;;;;;2.72;2.38;;;24.90;37.90;;;;;;5035071;28;20025;-65
2022/08/10 04:11:28;;;;;;;4.43;2.50;;;24.90;38.00;;;;;;5034826;28;20057;-65
2022/08/10 04:13:53;;;;;;;5.38;2.20;;;24.90;38.00;;;;;;5034436;28;20064;-65
2022/08/10 04:16:19;;;;;;;4.22;1.88;;;24.90;38.00;;;;;;5034524;28;20032;-65
2022/08/10 04:18:44;;;;;;;3.72;2.30;;;24.90;38.00;;;;;;5034080;28;20072;-65
2022/08/10 04:21:17;;;;;;;2.40;2.20;;;24.90;38.10;;;;;;5034529;28;20018;-65
2022/08/10 04:23:45;;;;;;;3.30;2.20;;;24.90;38.20;;;;;;5034557;28;20017;-64
2022/08/10 04:26:12;;;;;;;3.35;2.47;;;24.90;38.20;;;;;;5034378;28;20041;-65
2022/08/10 04:28:39;;;;;;;3.00;2.30;;;24.90;38.20;;;;;;5034543;28;20060;-65
2022/08/10 04:31:08;;;;;;;4.68;2.97;;;24.90;38.20;;;;;;5035086;28;20064;-65
2022/08/10 04:33:35;;;;;;;3.67;2.58;;;24.90;38.20;;;;;;5035684;28;20068;-67
2022/08/10 04:36:03;;;;;;;3.88;2.67;;;24.90;38.20;;;;;;5034804;28;20047;-66
2022/08/10 04:38:30;;;;;;;2.83;2.20;;;24.90;38.20;;;;;;5033929;28;20068;-66
2022/08/10 04:40:57;;;;;;;3.72;2.35;;;24.90;38.30;;;;;;5033870;28;20056;-65
2022/08/10 04:43:23;;;;;;;3.25;2.35;;;24.80;38.40;;;;;;5034483;28;20101;-65
2022/08/10 04:45:48;;;;;;;3.40;2.47;;;24.80;38.40;;;;;;5035339;28;20124;-67
2022/08/10 04:48:15;;;;;;;4.88;2.90;;;24.80;38.50;;;;;;5033785;28;20033;-66
2022/08/10 04:50:40;;;;;;;3.60;2.70;;;24.80;38.50;;;;;;5034891;28;20080;-66
2022/08/10 04:53:06;;;;;;;5.88;2.63;;;24.80;38.60;;;;;;5035446;28;20115;-64
2022/08/10 04:55:31;;;;;;;2.63;2.42;;;24.80;38.60;;;;;;5037329;28;20105;-66
2022/08/10 04:57:57;;;;;;;3.08;2.20;;;24.80;38.60;;;;;;5036996;28;20446;-65
2022/08/10 05:00:23;;;;;;;2.88;2.30;;;24.90;38.60;;;;;;5036935;28;20021;-66
2022/08/10 05:02:50;;;;;;;2.42;2.17;;;24.90;38.60;;;;;;5033815;28;20480;-66
2022/08/10 05:05:16;;;;;;;2.60;2.20;;;24.90;38.60;;;;;;5034643;28;20033;-67
2022/08/10 05:07:42;;;;;;;3.97;2.70;;;24.90;38.60;;;;;;5030459;28;20483;-66
2022/08/10 05:10:07;;;;;;;3.63;2.67;;;24.90;38.60;;;;;;5033417;28;20029;-67
2022/08/10 05:12:34;;;;;;;5.20;2.58;;;24.90;38.50;;;;;;5033314;28;20030;-66
2022/08/10 05:15:00;;;;;;;3.10;2.05;;;24.90;38.50;;;;;;5033388;28;20029;-67
2022/08/10 05:17:25;;;;;;;4.45;2.35;;;25.00;38.50;;;;;;5033038;28;20442;-66
2022/08/10 05:19:51;;;;;;;5.00;2.50;;;25.00;38.40;;;;;;5033201;28;20025;-67
2022/08/10 05:22:17;;;;;;;2.53;2.15;;;25.00;38.30;;;;;;5032202;28;20026;-66
2022/08/10 05:24:42;;;;;;;2.85;2.50;;;25.10;38.30;;;;;;5033042;28;20063;-64
2022/08/10 05:27:08;;;;;;;4.20;2.38;;;25.20;38.30;;;;;;5031497;28;20399;-65
2022/08/10 05:29:34;;;;;;;4.60;2.63;;;25.20;38.30;;;;;;5033272;28;20021;-63
2022/08/10 05:31:59;;;;;;;3.80;2.15;;;25.30;38.30;;;;;;5033381;28;20175;-64
2022/08/10 05:34:27;;;;;;;5.30;2.67;;;25.40;38.40;;;;;;5033155;28;20052;-63
2022/08/10 05:36:54;;;;;;;6.57;2.53;;;25.40;38.40;;;;;;5033021;28;20033;-62
2022/08/10 05:39:20;;;;;;;4.40;2.30;;;25.50;38.50;;;;;;5032539;28;21160;-63
2022/08/10 05:41:50;;;;;;;3.08;2.38;;;25.50;38.60;;;;;;5032325;28;20026;-64
2022/08/10 05:44:16;;;;;;;3.67;2.70;;;25.60;38.60;;;;;;5032814;28;20032;-64
2022/08/10 05:46:42;;;;;;;6.75;3.03;;;25.60;38.60;;;;;;5031096;28;20017;-64
2022/08/10 05:49:07;;;;;;;4.50;2.92;;;25.70;38.50;;;;;;5032540;28;20031;-63
2022/08/10 05:51:33;;;;;;;4.53;2.90;;;25.70;38.50;;;;;;5012952;28;20447;-63
2022/08/10 05:53:59;;;;;;;5.32;2.97;;;25.80;38.50;;;;;;5012605;28;20036;-62
2022/08/10 05:56:26;;;;;;;5.57;3.17;;;25.80;38.50;;;;;;5010796;28;20518;-64
2022/08/10 05:58:51;;;;;;;4.75;3.22;;;25.90;38.30;;;;;;5010505;28;20696;-63
2022/08/10 06:01:19;;;;;;;3.83;2.70;;;26.00;38.00;;;;;;5011158;28;20100;-62
2022/08/10 06:03:49;;;;;;;4.80;2.90;;;26.00;37.80;;;;;;5011248;28;20450;-63
2022/08/10 06:06:18;;;;;;;6.22;3.00;;;26.00;37.70;;;;;;5011213;28;20026;-63
2022/08/10 06:08:46;;;;;;;8.05;3.10;;;26.00;37.60;;;;;;5010963;28;20488;-63
2022/08/10 06:11:14;;;;;;;8.32;3.30;;;26.10;37.90;;;;;;5012199;28;20112;-64
2022/08/10 06:16:31;;;;;;;5.28;3.35;;;26.20;37.70;;;;;;5012762;28;20116;-65
2022/08/10 06:18:58;;;;;;;10.75;3.70;;;26.20;37.60;;;;;;5012081;28;20030;-64
2022/08/10 06:21:25;;;;;;;5.85;3.75;;;26.40;37.60;;;;;;5012347;28;20534;-64
2022/08/10 06:25:30;;;;;;;14.73;4.43;;;26.40;39.40;;;;;;5108890;27;20315;-67
2022/08/10 06:27:58;;;;;;;9.55;3.50;;;26.70;35.30;;;;;;5107073;28;20028;-67
2022/08/10 06:30:25;;;;;;;9.18;3.00;;;28.40;33.00;;;;;;5105888;28;20045;-67
2022/08/10 06:32:54;;;;;;;6.90;4.10;;;29.90;30.80;;;;;;5107321;28;20016;-66
2022/08/10 06:35:21;;;;;;;8.25;3.42;;;31.20;28.30;;;;;;5108167;28;20039;-67
2022/08/10 06:37:49;;;;;;;9.43;3.72;;;32.20;27.10;;;;;;5118669;22;20533;-73
2022/08/10 06:40:15;;;;;;;9.45;3.38;;;32.20;26.70;;;;;;5087661;28;20021;-72
2022/08/10 06:42:47;;;;;;;6.13;3.40;;;33.30;25.90;;;;;;5068887;28;20020;-72
2022/08/10 06:45:18;;;;;;;7.68;3.40;;;32.00;26.50;;;;;;5087371;28;20032;-72
2022/08/10 06:47:48;;;;;;;10.05;3.75;;;31.10;27.90;;;;;;5075582;28;20047;-72
2022/08/10 06:50:21;;;;;;;12.00;3.78;;;31.10;28.20;;;;;;5107795;28;20466;-72
2022/08/10 06:52:51;;;;;;;6.15;3.40;;;29.40;30.00;;;;;;5107855;28;20016;-72
2022/08/10 06:55:19;;;;;;;9.13;3.53;;;28.40;31.80;;;;;;5107897;28;20153;-72
2022/08/10 06:57:45;;;;;;;10.68;3.50;;;29.70;30.20;;;;;;5108634;28;20549;-72
2022/08/10 07:00:13;;;;;;;8.20;2.92;;;30.50;28.40;;;;;;5108722;28;20490;-72
2022/08/10 07:02:50;;;;;;;6.38;3.03;;;31.00;28.30;;;;;;5108698;28;20484;-72
2022/08/10 07:05:22;;;;;;;12.65;3.65;;;31.90;27.00;;;;;;5108691;28;20020;-72
2022/08/10 07:07:51;;;;;;;7.03;3.50;;;31.70;27.20;;;;;;5108346;28;20016;-73
2022/08/10 07:10:19;;;;;;;11.65;4.28;;;33.00;26.30;;;;;;5108750;28;20059;-72
2022/08/10 07:12:47;;;;;;;11.60;3.97;;;31.90;27.00;;;;;;5108588;28;20024;-72
2022/08/10 07:15:16;;;;;;;10.90;3.80;;;30.20;29.20;;;;;;5108569;28;20028;-72
2022/08/10 07:17:42;;;;;;;11.40;3.42;;;31.00;28.80;;;;;;5089999;28;20543;-72
2022/08/10 07:20:12;;;;;;;12.00;4.10;;;31.80;27.60;;;;;;5108418;28;20196;-72
2022/08/10 07:22:39;;;;;;;18.98;3.88;;;30.80;28.60;;;;;;5108557;28;20065;-71
2022/08/10 07:25:07;;;;;;;17.50;4.03;;;30.30;29.50;;;;;;5108097;28;20465;-73
2022/08/10 07:27:34;;;;;;;10.02;3.90;;;30.50;29.20;;;;;;5089783;28;20103;-72
2022/08/10 07:30:01;;;;;;;17.40;4.22;;;30.20;29.20;;;;;;5090063;28;20115;-72
2022/08/10 07:32:28;;;;;;;11.77;3.75;;;29.70;30.20;;;;;;5108345;28;20367;-71
2022/08/10 07:34:54;;;;;;;13.05;3.80;;;30.00;29.80;;;;;;5105963;28;20034;-72
2022/08/10 07:37:22;;;;;;;9.07;3.50;;;31.40;28.10;;;;;;5094290;28;20024;-72
2022/08/10 07:39:50;;;;;;;9.05;3.40;;;30.90;28.50;;;;;;5094510;28;20024;-70
2022/08/10 07:42:19;;;;;;;7.80;3.15;;;32.00;27.30;;;;;;5094775;28;20103;-72
2022/08/10 07:44:45;;;;;;;11.75;4.07;;;32.60;26.80;;;;;;5076455;28;20054;-72
2022/08/10 07:47:15;;;;;;;9.40;3.30;;;32.30;26.70;;;;;;5094123;28;20016;-74
2022/08/10 07:49:43;;;;;;;8.77;3.03;;;31.70;27.60;;;;;;5094877;28;20378;-72
2022/08/10 07:52:09;;;;;;;9.48;3.22;;;32.20;27.60;;;;;;5094328;28;20258;-71
2022/08/10 07:54:43;;;;;;;10.57;3.47;;;33.30;25.90;;;;;;5094345;28;20463;-73
2022/08/10 07:57:22;;;;;;;8.63;3.38;;;34.50;24.40;;;;;;5094716;28;20027;-73
2022/08/10 07:59:55;;;;;;;7.80;2.78;;;35.20;24.10;;;;;;5076555;28;20035;-72
2022/08/10 08:02:30;;;;;;;12.63;3.13;;;34.90;23.60;;;;;;5095600;28;20410;-73
2022/08/10 08:05:08;;;;;;;7.78;2.80;;;33.50;25.50;;;;;;5096247;28;20134;-72
2022/08/10 08:07:37;;;;;;;11.43;2.83;;;34.90;24.10;;;;;;5096728;28;20044;-72
2022/08/10 08:10:05;;;;;;;8.85;2.65;;;35.10;23.70;;;;;;5101002;28;20055;-72
2022/08/10 08:12:32;;;;;;;7.20;2.83;;;33.30;25.80;;;;;;5102803;28;20028;-72
2022/08/10 08:14:59;;;;;;;9.27;3.10;;;32.30;26.60;;;;;;5102436;28;20190;-72
2022/08/10 08:17:25;;;;;;;8.30;3.00;;;32.40;26.80;;;;;;5097428;28;20048;-72
2022/08/10 08:19:54;;;;;;;9.07;3.45;;;31.60;27.30;;;;;;5096778;28;20076;-72
2022/08/10 08:22:21;;;;;;;6.18;2.70;;;31.00;28.60;;;;;;5097554;28;20087;-73
2022/08/10 08:24:48;;;;;;;13.63;3.55;;;30.80;28.60;;;;;;5097967;28;20032;-73
2022/08/10 08:27:16;;;;;;;12.38;3.13;;;31.40;28.30;;;;;;5081582;28;20048;-73
2022/08/10 08:29:44;;;;;;;9.25;3.15;;;32.50;26.70;;;;;;5098126;28;20023;-73
2022/08/10 08:32:11;;;;;;;5.07;2.90;;;32.90;26.30;;;;;;5098033;28;20051;-73
2022/08/10 08:34:40;;;;;;;4.72;2.63;;;32.80;26.70;;;;;;5097054;28;20115;-73
2022/08/10 08:37:10;;;;;;;6.70;2.45;;;34.40;25.10;;;;;;5095624;28;20027;-72
2022/08/10 08:39:37;;;;;;;9.65;2.92;;;34.60;24.10;;;;;;5093891;28;20036;-74
2022/08/10 08:42:31;;;;;;;7.32;3.13;;;33.50;25.30;;;;;;5093432;28;20039;-71
2022/08/10 08:45:25;;;;;;;8.38;2.70;;;32.20;26.70;;;;;;5072100;28;20037;-73
2022/08/10 08:48:14;;;;;;;6.82;2.50;;;31.40;27.70;;;;;;5060191;28;20031;-72
2022/08/10 08:50:48;;;;;;;6.32;2.90;;;31.00;28.40;;;;;;5088078;28;20413;-74
2022/08/10 08:53:51;;;;;;;7.55;2.47;;;30.80;28.40;;;;;;5072643;28;20060;-73
2022/08/10 08:56:41;;;;;;;7.85;2.72;;;31.20;28.60;;;;;;5072094;28;20376;-73
2022/08/10 08:59:18;;;;;;;8.38;3.28;;;32.80;26.90;;;;;;5069427;28;20044;-72
2022/08/10 09:02:29;;;;;;;7.57;2.70;;;33.90;25.30;;;;;;5071922;28;20013;-72
2022/08/10 09:05:22;;;;;;;5.88;2.10;;;32.80;25.70;;;;;;5071822;28;20532;-73
2022/08/10 09:08:05;;;;;;;7.00;2.42;;;33.50;25.10;;;;;;5071377;28;20058;-73
2022/08/10 09:10:39;;;;;;;7.28;2.53;;;33.80;24.90;;;;;;5071651;28;20398;-73
2022/08/10 09:13:42;;;;;;;10.05;2.30;;;34.30;24.30;;;;;;5072194;28;20111;-73
2022/08/10 09:16:23;;;;;;;6.38;2.50;;;34.60;24.20;;;;;;5071790;28;20060;-73
2022/08/10 09:19:09;;;;;;;6.13;2.08;;;33.90;24.90;;;;;;5071094;28;20063;-73
2022/08/10 09:21:47;;;;;;;8.15;2.30;;;34.30;24.40;;;;;;5053826;28;20025;-72
2022/08/10 09:24:27;;;;;;;6.60;2.08;;;34.60;24.30;;;;;;5072387;28;20027;-71
2022/08/10 09:26:57;;;;;;;5.13;2.45;;;34.80;24.00;;;;;;5071448;28;20020;-71
2022/08/10 09:29:28;;;;;;;8.80;2.05;;;34.40;24.10;;;;;;5070991;28;20024;-72
2022/08/10 09:32:08;;;;;;;7.80;2.83;;;32.90;25.00;;;;;;5071316;28;20040;-72
2022/08/10 09:34:42;;;;;;;4.38;2.30;;;32.40;26.20;;;;;;5071547;28;20028;-73
2022/08/10 09:37:20;;;;;;;6.25;2.60;;;32.70;25.60;;;;;;5070885;28;20059;-73
2022/08/10 09:39:58;;;;;;;6.15;2.30;;;31.50;26.70;;;;;;5071897;28;20032;-71
2022/08/10 09:42:36;;;;;;;3.13;2.20;;;30.40;28.40;;;;;;5071899;28;20017;-72
2022/08/10 09:45:11;;;;;;;12.70;2.20;;;30.20;28.30;;;;;;5071511;28;20024;-73
2022/08/10 09:48:14;;;;;;;5.82;2.45;;;30.70;28.20;;;;;;5073662;28;20028;-74
2022/08/10 09:51:08;;;;;;;6.40;2.50;;;31.80;26.90;;;;;;5074461;28;20024;-73
2022/08/10 09:53:42;;;;;;;5.13;2.17;;;32.70;26.40;;;;;;5027899;28;20029;-74
2022/08/10 09:56:30;;;;;;;7.57;2.40;;;33.20;25.70;;;;;;5072648;28;20029;-74
2022/08/10 09:59:07;;;;;;;6.78;2.53;;;32.40;24.60;;;;;;5072838;28;20021;-73
2022/08/10 10:01:39;;;;;;;6.13;2.55;;;31.40;26.10;;;;;;5080097;28;20040;-72
2022/08/10 10:04:32;;;;;;;6.82;2.33;;;31.90;25.90;;;;;;5080661;28;20046;-73
2022/08/10 10:07:03;;;;;;;4.40;2.70;;;32.10;25.80;;;;;;5083304;28;20033;-71
2022/08/10 10:09:50;;;;;;;7.37;2.43;;;30.40;26.70;;;;;;5080595;28;20025;-72
2022/08/10 10:12:50;;;;;;;5.40;3.13;;;31.00;27.10;;;;;;5056469;28;20024;-74
2022/08/10 10:15:34;;;;;;;4.40;2.60;;;31.30;26.10;;;;;;5074805;28;20031;-74
2022/08/10 10:18:18;;;;;;;4.65;2.40;;;31.00;26.70;;;;;;5075201;28;20021;-72
2022/08/10 10:21:05;;;;;;;7.40;2.75;;;31.00;27.00;;;;;;5072912;28;20116;-73
2022/08/10 10:23:46;;;;;;;6.35;2.17;;;30.90;27.10;;;;;;5071473;28;20032;-72
2022/08/10 10:26:14;;;;;;;7.40;2.50;;;30.40;27.50;;;;;;5071230;28;20031;-73
2022/08/10 10:29:02;;;;;;;4.65;2.20;;;28.90;29.80;;;;;;5070485;28;20021;-73
2022/08/10 10:31:44;;;;;;;4.70;2.20;;;28.30;30.80;;;;;;5080820;28;20024;-73
2022/08/10 10:34:09;;;;;;;11.85;2.42;;;28.30;30.80;;;;;;5090679;28;20028;-72
2022/08/10 10:36:39;;;;;;;3.90;2.47;;;28.40;31.10;;;;;;5091434;28;20089;-72
2022/08/10 10:39:06;;;;;;;5.72;2.55;;;28.60;30.80;;;;;;5090946;28;20032;-74
2022/08/10 10:41:44;;;;;;;4.00;2.10;;;28.90;30.30;;;;;;5089878;28;20025;-73
2022/08/10 10:44:15;;;;;;;4.10;2.55;;;28.20;30.70;;;;;;5064131;28;20439;-72
2022/08/10 10:46:52;;;;;;;9.48;2.45;;;28.40;30.50;;;;;;5083635;28;20032;-73
2022/08/10 10:49:29;;;;;;;11.80;2.85;;;29.00;30.10;;;;;;5089534;28;20027;-72
2022/08/10 10:52:26;;;;;;;6.07;2.55;;;29.40;29.30;;;;;;5069830;28;20025;-73
2022/08/10 10:55:29;;;;;;;6.88;2.83;;;29.80;28.60;;;;;;5072613;28;20028;-73
2022/08/10 10:58:13;;;;;;;7.30;2.80;;;29.80;28.60;;;;;;5090897;28;20401;-73
2022/08/10 11:01:03;;;;;;;6.97;2.75;;;30.00;28.40;;;;;;5091568;28;20016;-72
2022/08/10 11:03:55;;;;;;;8.27;2.35;;;29.90;27.90;;;;;;5091159;28;20035;-72
2022/08/10 11:06:37;;;;;;;5.30;2.60;;;30.00;27.80;;;;;;5086995;28;20505;-72
2022/08/10 11:09:08;;;;;;;6.13;2.55;;;30.00;28.40;;;;;;5091012;28;20020;-72
2022/08/10 11:11:37;;;;;;;5.93;2.58;;;30.70;27.70;;;;;;5093718;28;20028;-72
2022/08/10 11:14:06;;;;;;;6.55;2.28;;;30.30;28.10;;;;;;5094939;28;20030;-72
2022/08/10 11:16:50;;;;;;;6.97;2.72;;;30.00;28.80;;;;;;5094679;28;20153;-72
2022/08/10 11:19:28;;;;;;;5.90;2.70;;;29.90;28.70;;;;;;5094835;28;20089;-72
2022/08/10 11:21:54;;;;;;;7.88;2.65;;;29.70;29.30;;;;;;5095023;28;20028;-72
2022/08/10 11:24:32;;;;;;;3.85;2.75;;;29.80;28.70;;;;;;5076788;28;20024;-73
2022/08/10 11:27:01;;;;;;;6.55;2.70;;;30.30;28.90;;;;;;5095080;28;20426;-71
2022/08/10 11:29:42;;;;;;;4.47;2.85;;;30.00;28.40;;;;;;5094596;28;20026;-72
2022/08/10 11:32:14;;;;;;;9.52;3.00;;;28.60;29.80;;;;;;5076540;28;20058;-71
2022/08/10 11:35:07;;;;;;;6.95;3.20;;;28.10;30.30;;;;;;5094576;28;20032;-72
2022/08/10 11:37:58;;;;;;;11.02;3.28;;;28.40;30.50;;;;;;5094029;28;20344;-72
2022/08/10 11:40:55;;;;;;;6.67;2.53;;;28.50;29.80;;;;;;5094605;28;20023;-72
2022/08/10 11:43:26;;;;;;;7.35;2.80;;;28.40;29.80;;;;;;5093624;28;20047;-73
2022/08/10 11:46:29;;;;;;;3.05;2.28;;;28.40;29.80;;;;;;5094311;28;20024;-72
2022/08/10 11:49:29;;;;;;;5.90;2.67;;;28.30;29.70;;;;;;5093929;28;20024;-72
2022/08/10 11:52:01;;;;;;;6.27;2.37;;;28.10;29.30;;;;;;5076171;28;20024;-72
2022/08/10 11:54:36;;;;;;;3.70;2.63;;;28.10;29.20;;;;;;5094054;28;20262;-73
2022/08/10 11:57:02;;;;;;;4.97;2.35;;;28.00;29.30;;;;;;5093884;28;20481;-71
2022/08/10 12:02:20;;;;;;;5.65;2.60;;;28.50;29.70;;;;;;5094176;28;20035;-73
2022/08/10 12:04:50;;;;;;;4.10;2.63;;;28.90;27.80;;;;;;5093919;28;20032;-72
2022/08/10 12:07:17;;;;;;;3.30;2.45;;;28.80;28.40;;;;;;5094605;28;20027;-72
2022/08/10 12:09:44;;;;;;;2.88;2.55;;;28.10;29.10;;;;;;5092560;28;20063;-72
2022/08/10 12:12:10;;;;;;;5.03;2.53;;;28.50;29.40;;;;;;5093867;28;20504;-72
2022/08/10 12:14:52;;;;;;;4.90;2.63;;;29.10;29.40;;;;;;5094079;28;20546;-71
2022/08/10 12:17:25;;;;;;;3.75;2.42;;;29.40;28.00;;;;;;5093793;28;20031;-72
2022/08/10 12:20:05;;;;;;;5.80;2.47;;;29.20;27.90;;;;;;5075972;28;20385;-71
2022/08/10 12:22:45;;;;;;;4.97;2.50;;;29.00;28.20;;;;;;5093646;28;20520;-72
2022/08/10 12:25:19;;;;;;;5.70;2.57;;;29.20;28.40;;;;;;5075276;28;20039;-73
2022/08/10 12:27:53;;;;;;;4.63;2.90;;;29.50;28.70;;;;;;5093653;28;20024;-72
2022/08/10 12:30:28;;;;;;;5.68;2.63;;;29.50;28.40;;;;;;5093805;28;20024;-71
2022/08/10 12:32:58;;;;;;;5.80;2.53;;;29.30;28.60;;;;;;5093609;28;20477;-72
2022/08/10 12:35:55;;;;;;;5.20;2.50;;;29.40;28.50;;;;;;5092234;28;20056;-72
2022/08/10 12:38:33;;;;;;;4.68;2.20;;;29.80;27.90;;;;;;5120042;22;20417;-66
2022/08/10 12:41:02;;;;;;;5.47;2.90;;;29.90;28.20;;;;;;5112749;28;20526;-67
2022/08/10 12:43:45;;;;;;;8.55;2.55;;;29.80;27.60;;;;;;5113373;28;20034;-67
2022/08/10 12:46:50;;;;;;;6.03;2.45;;;29.90;27.30;;;;;;5113610;28;20032;-67
2022/08/10 12:49:22;;;;;;;9.55;2.30;;;30.00;27.80;;;;;;5113581;28;20023;-69
2022/08/10 12:52:15;;;;;;;4.05;2.65;;;29.70;27.60;;;;;;5114192;28;20026;-67
2022/08/10 12:54:43;;;;;;;6.45;2.38;;;29.70;27.60;;;;;;5113661;28;20063;-67
2022/08/10 12:57:21;;;;;;;5.00;2.47;;;30.00;27.60;;;;;;5113175;28;20051;-67
2022/08/10 12:59:51;;;;;;;11.32;2.58;;;30.40;27.10;;;;;;5095138;28;20496;-67
2022/08/10 13:02:23;;;;;;;6.53;2.83;;;30.30;26.40;;;;;;5113331;28;20028;-67
2022/08/10 13:04:52;;;;;;;5.40;2.45;;;29.00;27.70;;;;;;5113089;28;20023;-67
2022/08/10 13:07:43;;;;;;;6.22;2.50;;;28.90;28.70;;;;;;5094577;28;20073;-67
2022/08/10 13:10:16;;;;;;;3.92;2.40;;;28.90;29.10;;;;;;5105499;28;20393;-68
2022/08/10 13:12:44;;;;;;;4.82;2.40;;;29.20;28.60;;;;;;5113080;28;20493;-68
2022/08/10 13:15:23;;;;;;;3.88;2.45;;;29.10;28.40;;;;;;5112994;28;20032;-68
2022/08/10 13:17:50;;;;;;;4.90;2.33;;;28.90;28.40;;;;;;5112962;28;20034;-67
2022/08/10 13:20:23;;;;;;;3.95;2.38;;;28.90;28.70;;;;;;5112980;28;20483;-68